sensor_id;sensor_type;location;lat;lon;timestamp;P1;durP1;ratioP1;P2;durP2;ratioP2
28074;SDS011;15385;51.088;6.572;2022-07-25T00:01:57;14.63;;;4.57;;
28074;SDS011;15385;51.088;6.572;2022-07-25T00:04:27;6.03;;;4.30;;
28074;SDS011;15385;51.088;6.572;2022-07-25T00:06:58;6.18;;;4.15;;
28074;SDS011;15385;51.088;6.572;2022-07-25T00:09:29;6.03;;;4.50;;
28074;SDS011;15385;51.088;6.572;2022-07-25T00:11:59;7.53;;;4.30;;
28074;SDS011;15385;51.088;6.572;2022-07-25T00:14:30;7.82;;;5.05;;
28074;SDS011;15385;51.088;6.572;2022-07-25T00:17:01;7.28;;;4.85;;
28074;SDS011;15385;51.088;6.572;2022-07-25T00:19:31;10.32;;;5.13;;
28074;SDS011;15385;51.088;6.572;2022-07-25T00:22:02;7.72;;;4.60;;
28074;SDS011;15385;51.088;6.572;2022-07-25T00:24:35;8.55;;;4.60;;
28074;SDS011;15385;51.088;6.572;2022-07-25T00:27:06;6.95;;;4.95;;
28074;SDS011;15385;51.088;6.572;2022-07-25T00:29:36;5.50;;;4.65;;
28074;SDS011;15385;51.088;6.572;2022-07-25T00:32:10;6.68;;;4.60;;
28074;SDS011;15385;51.088;6.572;2022-07-25T00:34:40;6.85;;;4.78;;
28074;SDS011;15385;51.088;6.572;2022-07-25T00:37:11;7.60;;;4.65;;
28074;SDS011;15385;51.088;6.572;2022-07-25T00:39:42;7.40;;;5.30;;
28074;SDS011;15385;51.088;6.572;2022-07-25T00:42:12;6.45;;;4.47;;
28074;SDS011;15385;51.088;6.572;2022-07-25T00:44:43;5.38;;;4.53;;
28074;SDS011;15385;51.088;6.572;2022-07-25T00:47:16;7.40;;;4.85;;
28074;SDS011;15385;51.088;6.572;2022-07-25T00:49:50;6.13;;;4.80;;
28074;SDS011;15385;51.088;6.572;2022-07-25T00:52:21;7.72;;;4.63;;
28074;SDS011;15385;51.088;6.572;2022-07-25T00:54:53;6.97;;;4.93;;
28074;SDS011;15385;51.088;6.572;2022-07-25T00:57:25;6.35;;;4.00;;
28074;SDS011;15385;51.088;6.572;2022-07-25T00:59:59;6.43;;;4.55;;
28074;SDS011;15385;51.088;6.572;2022-07-25T01:02:29;6.25;;;4.55;;
28074;SDS011;15385;51.088;6.572;2022-07-25T01:05:01;7.45;;;4.40;;
28074;SDS011;15385;51.088;6.572;2022-07-25T01:07:34;7.35;;;4.20;;
28074;SDS011;15385;51.088;6.572;2022-07-25T01:10:06;6.93;;;4.20;;
28074;SDS011;15385;51.088;6.572;2022-07-25T01:12:46;7.40;;;4.25;;
28074;SDS011;15385;51.088;6.572;2022-07-25T01:15:24;6.55;;;4.38;;
28074;SDS011;15385;51.088;6.572;2022-07-25T01:17:55;9.82;;;4.43;;
28074;SDS011;15385;51.088;6.572;2022-07-25T01:20:27;6.88;;;4.60;;
28074;SDS011;15385;51.088;6.572;2022-07-25T01:22:59;10.43;;;5.20;;
28074;SDS011;15385;51.088;6.572;2022-07-25T01:25:30;8.43;;;4.50;;
28074;SDS011;15385;51.088;6.572;2022-07-25T01:28:01;6.80;;;5.22;;
28074;SDS011;15385;51.088;6.572;2022-07-25T01:30:34;10.10;;;4.38;;
28074;SDS011;15385;51.088;6.572;2022-07-25T01:33:05;6.65;;;4.18;;
28074;SDS011;15385;51.088;6.572;2022-07-25T01:35:36;7.82;;;4.20;;
28074;SDS011;15385;51.088;6.572;2022-07-25T01:38:06;8.73;;;4.60;;
28074;SDS011;15385;51.088;6.572;2022-07-25T01:40:37;6.82;;;4.22;;
28074;SDS011;15385;51.088;6.572;2022-07-25T01:43:09;4.85;;;3.88;;
28074;SDS011;15385;51.088;6.572;2022-07-25T01:45:39;8.10;;;4.53;;
28074;SDS011;15385;51.088;6.572;2022-07-25T01:48:10;6.57;;;4.20;;
28074;SDS011;15385;51.088;6.572;2022-07-25T01:50:44;5.07;;;4.30;;
28074;SDS011;15385;51.088;6.572;2022-07-25T01:53:15;5.47;;;4.30;;
28074;SDS011;15385;51.088;6.572;2022-07-25T01:55:46;8.23;;;4.80;;
28074;SDS011;15385;51.088;6.572;2022-07-25T01:58:17;8.25;;;4.57;;
28074;SDS011;15385;51.088;6.572;2022-07-25T02:00:50;4.72;;;3.90;;
28074;SDS011;15385;51.088;6.572;2022-07-25T02:03:21;5.95;;;4.10;;
28074;SDS011;15385;51.088;6.572;2022-07-25T02:06:01;8.23;;;4.72;;
28074;SDS011;15385;51.088;6.572;2022-07-25T02:08:36;8.18;;;4.63;;
28074;SDS011;15385;51.088;6.572;2022-07-25T02:11:07;6.43;;;4.85;;
28074;SDS011;15385;51.088;6.572;2022-07-25T02:13:38;7.18;;;4.70;;
28074;SDS011;15385;51.088;6.572;2022-07-25T02:16:11;5.50;;;3.92;;
28074;SDS011;15385;51.088;6.572;2022-07-25T02:18:42;6.53;;;4.22;;
28074;SDS011;15385;51.088;6.572;2022-07-25T02:21:12;7.20;;;5.00;;
28074;SDS011;15385;51.088;6.572;2022-07-25T02:23:43;6.43;;;4.57;;
28074;SDS011;15385;51.088;6.572;2022-07-25T02:26:17;9.55;;;4.25;;
28074;SDS011;15385;51.088;6.572;2022-07-25T02:28:50;8.18;;;4.50;;
28074;SDS011;15385;51.088;6.572;2022-07-25T02:31:21;5.95;;;4.53;;
28074;SDS011;15385;51.088;6.572;2022-07-25T02:33:52;5.47;;;4.30;;
28074;SDS011;15385;51.088;6.572;2022-07-25T02:36:23;5.68;;;4.38;;
28074;SDS011;15385;51.088;6.572;2022-07-25T02:38:53;8.07;;;4.47;;
28074;SDS011;15385;51.088;6.572;2022-07-25T02:41:24;7.00;;;4.65;;
28074;SDS011;15385;51.088;6.572;2022-07-25T02:43:55;7.88;;;4.47;;
28074;SDS011;15385;51.088;6.572;2022-07-25T02:46:25;5.32;;;4.00;;
28074;SDS011;15385;51.088;6.572;2022-07-25T02:48:56;6.13;;;4.43;;
28074;SDS011;15385;51.088;6.572;2022-07-25T02:51:27;5.53;;;4.50;;
28074;SDS011;15385;51.088;6.572;2022-07-25T02:53:58;8.00;;;4.55;;
28074;SDS011;15385;51.088;6.572;2022-07-25T02:56:32;6.43;;;4.47;;
28074;SDS011;15385;51.088;6.572;2022-07-25T02:59:02;6.05;;;4.22;;
28074;SDS011;15385;51.088;6.572;2022-07-25T03:01:36;5.38;;;4.60;;
28074;SDS011;15385;51.088;6.572;2022-07-25T03:04:07;6.55;;;3.97;;
28074;SDS011;15385;51.088;6.572;2022-07-25T03:06:37;6.20;;;4.25;;
28074;SDS011;15385;51.088;6.572;2022-07-25T03:09:08;5.03;;;4.15;;
28074;SDS011;15385;51.088;6.572;2022-07-25T03:11:39;6.25;;;4.57;;
28074;SDS011;15385;51.088;6.572;2022-07-25T03:14:09;6.63;;;4.90;;
28074;SDS011;15385;51.088;6.572;2022-07-25T03:16:40;7.47;;;4.47;;
28074;SDS011;15385;51.088;6.572;2022-07-25T03:19:10;5.40;;;4.47;;
28074;SDS011;15385;51.088;6.572;2022-07-25T03:21:43;7.93;;;4.70;;
28074;SDS011;15385;51.088;6.572;2022-07-25T03:24:18;7.30;;;4.82;;
28074;SDS011;15385;51.088;6.572;2022-07-25T03:26:48;6.50;;;4.57;;
28074;SDS011;15385;51.088;6.572;2022-07-25T03:29:24;6.78;;;4.65;;
28074;SDS011;15385;51.088;6.572;2022-07-25T03:31:55;6.13;;;4.68;;
28074;SDS011;15385;51.088;6.572;2022-07-25T03:34:26;5.30;;;4.60;;
28074;SDS011;15385;51.088;6.572;2022-07-25T03:36:57;5.80;;;4.07;;
28074;SDS011;15385;51.088;6.572;2022-07-25T03:39:29;6.30;;;4.60;;
28074;SDS011;15385;51.088;6.572;2022-07-25T03:42:00;4.90;;;4.07;;
28074;SDS011;15385;51.088;6.572;2022-07-25T03:44:30;6.75;;;4.70;;
28074;SDS011;15385;51.088;6.572;2022-07-25T03:47:01;7.22;;;4.53;;
28074;SDS011;15385;51.088;6.572;2022-07-25T03:49:32;5.78;;;4.75;;
28074;SDS011;15385;51.088;6.572;2022-07-25T03:52:02;4.93;;;4.25;;
28074;SDS011;15385;51.088;6.572;2022-07-25T03:54:33;7.18;;;4.80;;
28074;SDS011;15385;51.088;6.572;2022-07-25T03:57:07;6.28;;;4.55;;
28074;SDS011;15385;51.088;6.572;2022-07-25T03:59:37;10.40;;;4.95;;
28074;SDS011;15385;51.088;6.572;2022-07-25T04:02:08;5.78;;;4.60;;
28074;SDS011;15385;51.088;6.572;2022-07-25T04:04:39;6.20;;;4.78;;
28074;SDS011;15385;51.088;6.572;2022-07-25T04:07:09;7.15;;;4.70;;
28074;SDS011;15385;51.088;6.572;2022-07-25T04:09:40;8.98;;;4.53;;
28074;SDS011;15385;51.088;6.572;2022-07-25T04:12:13;6.78;;;4.68;;
28074;SDS011;15385;51.088;6.572;2022-07-25T04:14:44;8.07;;;4.80;;
28074;SDS011;15385;51.088;6.572;2022-07-25T04:17:15;7.25;;;4.78;;
28074;SDS011;15385;51.088;6.572;2022-07-25T04:19:45;6.53;;;4.68;;
28074;SDS011;15385;51.088;6.572;2022-07-25T04:22:16;6.45;;;4.57;;
28074;SDS011;15385;51.088;6.572;2022-07-25T04:24:46;7.88;;;4.80;;
28074;SDS011;15385;51.088;6.572;2022-07-25T04:27:17;7.28;;;4.95;;
28074;SDS011;15385;51.088;6.572;2022-07-25T04:29:48;7.10;;;5.07;;
28074;SDS011;15385;51.088;6.572;2022-07-25T04:32:18;6.57;;;4.90;;
28074;SDS011;15385;51.088;6.572;2022-07-25T04:34:49;5.00;;;4.40;;
28074;SDS011;15385;51.088;6.572;2022-07-25T04:37:30;6.57;;;4.45;;
28074;SDS011;15385;51.088;6.572;2022-07-25T04:40:02;6.75;;;4.95;;
28074;SDS011;15385;51.088;6.572;2022-07-25T04:42:33;7.55;;;4.90;;
28074;SDS011;15385;51.088;6.572;2022-07-25T04:45:04;7.05;;;4.63;;
28074;SDS011;15385;51.088;6.572;2022-07-25T04:47:35;6.63;;;4.60;;
28074;SDS011;15385;51.088;6.572;2022-07-25T04:50:06;6.78;;;4.40;;
28074;SDS011;15385;51.088;6.572;2022-07-25T04:52:37;8.45;;;4.57;;
28074;SDS011;15385;51.088;6.572;2022-07-25T04:55:08;4.60;;;4.00;;
28074;SDS011;15385;51.088;6.572;2022-07-25T04:57:38;5.65;;;4.60;;
28074;SDS011;15385;51.088;6.572;2022-07-25T05:00:09;7.43;;;4.57;;
28074;SDS011;15385;51.088;6.572;2022-07-25T05:02:40;7.85;;;4.63;;
28074;SDS011;15385;51.088;6.572;2022-07-25T05:05:11;11.95;;;4.88;;
28074;SDS011;15385;51.088;6.572;2022-07-25T05:07:45;6.72;;;4.60;;
28074;SDS011;15385;51.088;6.572;2022-07-25T05:10:16;9.88;;;6.07;;
28074;SDS011;15385;51.088;6.572;2022-07-25T05:12:47;6.22;;;4.60;;
28074;SDS011;15385;51.088;6.572;2022-07-25T05:15:17;11.32;;;5.18;;
28074;SDS011;15385;51.088;6.572;2022-07-25T05:17:48;8.30;;;5.05;;
28074;SDS011;15385;51.088;6.572;2022-07-25T05:20:19;7.45;;;4.55;;
28074;SDS011;15385;51.088;6.572;2022-07-25T05:22:49;9.15;;;4.57;;
28074;SDS011;15385;51.088;6.572;2022-07-25T05:25:20;6.80;;;4.72;;
28074;SDS011;15385;51.088;6.572;2022-07-25T05:27:54;6.03;;;4.70;;
28074;SDS011;15385;51.088;6.572;2022-07-25T05:30:27;9.02;;;4.93;;
28074;SDS011;15385;51.088;6.572;2022-07-25T05:32:58;7.70;;;4.85;;
28074;SDS011;15385;51.088;6.572;2022-07-25T05:35:28;6.07;;;5.10;;
28074;SDS011;15385;51.088;6.572;2022-07-25T05:37:59;7.82;;;4.55;;
28074;SDS011;15385;51.088;6.572;2022-07-25T05:40:30;7.35;;;4.72;;
28074;SDS011;15385;51.088;6.572;2022-07-25T05:43:00;10.02;;;4.82;;
28074;SDS011;15385;51.088;6.572;2022-07-25T05:45:31;5.78;;;4.30;;
28074;SDS011;15385;51.088;6.572;2022-07-25T05:48:02;5.43;;;4.13;;
28074;SDS011;15385;51.088;6.572;2022-07-25T05:50:32;7.20;;;4.75;;
28074;SDS011;15385;51.088;6.572;2022-07-25T05:53:06;5.07;;;4.25;;
28074;SDS011;15385;51.088;6.572;2022-07-25T05:55:37;6.00;;;3.85;;
28074;SDS011;15385;51.088;6.572;2022-07-25T05:58:10;4.38;;;3.33;;
28074;SDS011;15385;51.088;6.572;2022-07-25T06:00:41;6.20;;;4.25;;
28074;SDS011;15385;51.088;6.572;2022-07-25T06:03:14;5.82;;;4.13;;
28074;SDS011;15385;51.088;6.572;2022-07-25T06:05:45;5.50;;;4.35;;
28074;SDS011;15385;51.088;6.572;2022-07-25T06:08:16;5.68;;;3.78;;
28074;SDS011;15385;51.088;6.572;2022-07-25T06:10:47;5.32;;;3.83;;
28074;SDS011;15385;51.088;6.572;2022-07-25T06:13:17;6.07;;;3.95;;
28074;SDS011;15385;51.088;6.572;2022-07-25T06:15:48;5.95;;;4.13;;
28074;SDS011;15385;51.088;6.572;2022-07-25T06:18:19;4.20;;;3.78;;
28074;SDS011;15385;51.088;6.572;2022-07-25T06:20:49;7.78;;;4.13;;
28074;SDS011;15385;51.088;6.572;2022-07-25T06:23:20;5.97;;;4.07;;
28074;SDS011;15385;51.088;6.572;2022-07-25T06:25:51;5.57;;;4.05;;
28074;SDS011;15385;51.088;6.572;2022-07-25T06:28:21;5.10;;;3.88;;
28074;SDS011;15385;51.088;6.572;2022-07-25T06:30:52;6.40;;;4.18;;
28074;SDS011;15385;51.088;6.572;2022-07-25T06:33:23;8.52;;;4.00;;
28074;SDS011;15385;51.088;6.572;2022-07-25T06:35:54;7.90;;;3.83;;
28074;SDS011;15385;51.088;6.572;2022-07-25T06:38:24;9.57;;;4.40;;
28074;SDS011;15385;51.088;6.572;2022-07-25T06:40:55;6.50;;;4.05;;
28074;SDS011;15385;51.088;6.572;2022-07-25T06:43:25;5.55;;;3.75;;
28074;SDS011;15385;51.088;6.572;2022-07-25T06:45:59;6.60;;;4.13;;
28074;SDS011;15385;51.088;6.572;2022-07-25T06:48:32;5.63;;;3.83;;
28074;SDS011;15385;51.088;6.572;2022-07-25T06:51:03;4.97;;;3.92;;
28074;SDS011;15385;51.088;6.572;2022-07-25T06:53:34;5.65;;;3.78;;
28074;SDS011;15385;51.088;6.572;2022-07-25T06:56:05;5.18;;;4.07;;
28074;SDS011;15385;51.088;6.572;2022-07-25T06:58:36;7.57;;;4.10;;
28074;SDS011;15385;51.088;6.572;2022-07-25T07:01:06;5.20;;;3.85;;
28074;SDS011;15385;51.088;6.572;2022-07-25T07:03:37;4.93;;;3.72;;
28074;SDS011;15385;51.088;6.572;2022-07-25T07:06:09;4.75;;;4.00;;
28074;SDS011;15385;51.088;6.572;2022-07-25T07:08:42;6.82;;;3.95;;
28074;SDS011;15385;51.088;6.572;2022-07-25T07:11:13;5.28;;;3.78;;
28074;SDS011;15385;51.088;6.572;2022-07-25T07:13:46;14.90;;;4.43;;
28074;SDS011;15385;51.088;6.572;2022-07-25T07:16:16;8.07;;;3.83;;
28074;SDS011;15385;51.088;6.572;2022-07-25T07:18:47;5.72;;;4.10;;
28074;SDS011;15385;51.088;6.572;2022-07-25T07:21:18;6.55;;;4.10;;
28074;SDS011;15385;51.088;6.572;2022-07-25T07:23:48;6.85;;;4.03;;
28074;SDS011;15385;51.088;6.572;2022-07-25T07:26:20;11.00;;;4.22;;
28074;SDS011;15385;51.088;6.572;2022-07-25T07:28:50;7.82;;;4.43;;
28074;SDS011;15385;51.088;6.572;2022-07-25T07:31:23;7.18;;;4.43;;
28074;SDS011;15385;51.088;6.572;2022-07-25T07:33:54;10.07;;;4.05;;
28074;SDS011;15385;51.088;6.572;2022-07-25T07:36:24;6.32;;;3.97;;
28074;SDS011;15385;51.088;6.572;2022-07-25T07:38:56;4.60;;;3.85;;
28074;SDS011;15385;51.088;6.572;2022-07-25T07:41:26;7.13;;;3.75;;
28074;SDS011;15385;51.088;6.572;2022-07-25T07:43:57;6.75;;;4.20;;
28074;SDS011;15385;51.088;6.572;2022-07-25T07:46:27;8.40;;;4.13;;
28074;SDS011;15385;51.088;6.572;2022-07-25T07:48:58;7.80;;;3.95;;
28074;SDS011;15385;51.088;6.572;2022-07-25T07:51:29;6.25;;;4.05;;
28074;SDS011;15385;51.088;6.572;2022-07-25T07:53:59;6.88;;;4.18;;
28074;SDS011;15385;51.088;6.572;2022-07-25T07:56:48;6.05;;;3.80;;
28074;SDS011;15385;51.088;6.572;2022-07-25T07:59:19;12.07;;;4.32;;
28074;SDS011;15385;51.088;6.572;2022-07-25T08:01:50;9.48;;;4.25;;
28074;SDS011;15385;51.088;6.572;2022-07-25T08:04:21;6.90;;;3.83;;
28074;SDS011;15385;51.088;6.572;2022-07-25T08:06:52;7.95;;;4.20;;
28074;SDS011;15385;51.088;6.572;2022-07-25T08:09:22;7.78;;;4.20;;
28074;SDS011;15385;51.088;6.572;2022-07-25T08:11:54;4.90;;;3.78;;
28074;SDS011;15385;51.088;6.572;2022-07-25T08:14:28;7.60;;;4.22;;
28074;SDS011;15385;51.088;6.572;2022-07-25T08:16:58;6.28;;;3.65;;
28074;SDS011;15385;51.088;6.572;2022-07-25T08:19:29;5.70;;;3.85;;
28074;SDS011;15385;51.088;6.572;2022-07-25T08:21:59;11.57;;;3.65;;
28074;SDS011;15385;51.088;6.572;2022-07-25T08:24:30;12.35;;;4.10;;
28074;SDS011;15385;51.088;6.572;2022-07-25T08:27:01;5.53;;;3.53;;
28074;SDS011;15385;51.088;6.572;2022-07-25T08:29:31;8.50;;;3.63;;
28074;SDS011;15385;51.088;6.572;2022-07-25T08:32:02;7.15;;;3.75;;
28074;SDS011;15385;51.088;6.572;2022-07-25T08:34:36;9.20;;;4.20;;
28074;SDS011;15385;51.088;6.572;2022-07-25T08:37:07;8.23;;;4.20;;
28074;SDS011;15385;51.088;6.572;2022-07-25T08:39:37;6.70;;;4.13;;
28074;SDS011;15385;51.088;6.572;2022-07-25T08:42:10;5.68;;;3.85;;
28074;SDS011;15385;51.088;6.572;2022-07-25T08:44:41;7.32;;;3.88;;
28074;SDS011;15385;51.088;6.572;2022-07-25T08:47:16;7.47;;;4.00;;
28074;SDS011;15385;51.088;6.572;2022-07-25T08:49:47;5.97;;;3.42;;
28074;SDS011;15385;51.088;6.572;2022-07-25T08:52:21;7.80;;;4.25;;
28074;SDS011;15385;51.088;6.572;2022-07-25T08:54:52;5.03;;;3.92;;
28074;SDS011;15385;51.088;6.572;2022-07-25T08:57:23;5.47;;;4.10;;
28074;SDS011;15385;51.088;6.572;2022-07-25T08:59:59;5.68;;;3.65;;
28074;SDS011;15385;51.088;6.572;2022-07-25T09:02:31;7.97;;;4.22;;
28074;SDS011;15385;51.088;6.572;2022-07-25T09:05:04;9.57;;;3.90;;
28074;SDS011;15385;51.088;6.572;2022-07-25T09:07:39;7.22;;;3.95;;
28074;SDS011;15385;51.088;6.572;2022-07-25T09:12:58;7.03;;;4.32;;
28074;SDS011;15385;51.088;6.572;2022-07-25T09:18:05;8.43;;;4.20;;
28074;SDS011;15385;51.088;6.572;2022-07-25T09:20:42;8.35;;;3.65;;
28074;SDS011;15385;51.088;6.572;2022-07-25T09:23:14;10.80;;;3.60;;
28074;SDS011;15385;51.088;6.572;2022-07-25T09:26:15;9.00;;;4.05;;
28074;SDS011;15385;51.088;6.572;2022-07-25T09:28:47;10.25;;;4.07;;
28074;SDS011;15385;51.088;6.572;2022-07-25T09:31:30;16.27;;;4.68;;
28074;SDS011;15385;51.088;6.572;2022-07-25T09:34:01;6.22;;;3.70;;
28074;SDS011;15385;51.088;6.572;2022-07-25T09:36:38;6.20;;;3.50;;
28074;SDS011;15385;51.088;6.572;2022-07-25T09:39:19;5.70;;;3.20;;
28074;SDS011;15385;51.088;6.572;2022-07-25T09:41:53;3.78;;;3.00;;
28074;SDS011;15385;51.088;6.572;2022-07-25T09:44:23;6.97;;;3.20;;
28074;SDS011;15385;51.088;6.572;2022-07-25T09:47:08;7.50;;;3.17;;
28074;SDS011;15385;51.088;6.572;2022-07-25T09:49:43;5.25;;;2.85;;
28074;SDS011;15385;51.088;6.572;2022-07-25T09:52:16;3.90;;;2.85;;
28074;SDS011;15385;51.088;6.572;2022-07-25T09:54:47;4.55;;;2.83;;
28074;SDS011;15385;51.088;6.572;2022-07-25T09:57:21;7.47;;;2.95;;
28074;SDS011;15385;51.088;6.572;2022-07-25T09:59:53;6.38;;;2.95;;
28074;SDS011;15385;51.088;6.572;2022-07-25T10:05:23;4.75;;;2.80;;
28074;SDS011;15385;51.088;6.572;2022-07-25T10:07:58;4.88;;;2.80;;
28074;SDS011;15385;51.088;6.572;2022-07-25T10:10:30;3.47;;;2.58;;
28074;SDS011;15385;51.088;6.572;2022-07-25T10:13:08;3.85;;;3.20;;
28074;SDS011;15385;51.088;6.572;2022-07-25T10:15:44;3.78;;;2.70;;
28074;SDS011;15385;51.088;6.572;2022-07-25T10:18:19;3.95;;;2.15;;
28074;SDS011;15385;51.088;6.572;2022-07-25T10:21:09;4.25;;;2.63;;
28074;SDS011;15385;51.088;6.572;2022-07-25T10:23:41;5.90;;;2.60;;
28074;SDS011;15385;51.088;6.572;2022-07-25T10:26:13;8.40;;;2.50;;
28074;SDS011;15385;51.088;6.572;2022-07-25T10:28:49;3.00;;;2.00;;
28074;SDS011;15385;51.088;6.572;2022-07-25T10:31:23;2.88;;;2.00;;
28074;SDS011;15385;51.088;6.572;2022-07-25T10:33:54;2.65;;;1.90;;
28074;SDS011;15385;51.088;6.572;2022-07-25T10:36:28;6.28;;;2.45;;
28074;SDS011;15385;51.088;6.572;2022-07-25T10:39:20;4.03;;;2.65;;
28074;SDS011;15385;51.088;6.572;2022-07-25T10:41:54;3.67;;;2.22;;
28074;SDS011;15385;51.088;6.572;2022-07-25T10:44:41;5.28;;;2.10;;
28074;SDS011;15385;51.088;6.572;2022-07-25T10:47:21;4.70;;;1.60;;
28074;SDS011;15385;51.088;6.572;2022-07-25T10:49:55;2.70;;;2.00;;
28074;SDS011;15385;51.088;6.572;2022-07-25T10:52:28;4.45;;;2.35;;
28074;SDS011;15385;51.088;6.572;2022-07-25T10:55:20;2.67;;;1.90;;
28074;SDS011;15385;51.088;6.572;2022-07-25T10:58:00;3.40;;;1.95;;
28074;SDS011;15385;51.088;6.572;2022-07-25T11:03:03;3.85;;;2.22;;
28074;SDS011;15385;51.088;6.572;2022-07-25T11:05:42;3.60;;;2.17;;
28074;SDS011;15385;51.088;6.572;2022-07-25T11:08:14;2.67;;;2.38;;
28074;SDS011;15385;51.088;6.572;2022-07-25T11:10:49;3.63;;;2.30;;
28074;SDS011;15385;51.088;6.572;2022-07-25T11:13:23;5.22;;;2.80;;
28074;SDS011;15385;51.088;6.572;2022-07-25T11:15:57;10.20;;;2.88;;
28074;SDS011;15385;51.088;6.572;2022-07-25T11:18:34;7.07;;;2.53;;
28074;SDS011;15385;51.088;6.572;2022-07-25T11:21:07;4.85;;;2.60;;
28074;SDS011;15385;51.088;6.572;2022-07-25T11:23:39;5.10;;;2.33;;
28074;SDS011;15385;51.088;6.572;2022-07-25T11:26:10;3.65;;;2.28;;
28074;SDS011;15385;51.088;6.572;2022-07-25T11:28:43;3.17;;;2.20;;
28074;SDS011;15385;51.088;6.572;2022-07-25T11:31:15;3.33;;;2.05;;
28074;SDS011;15385;51.088;6.572;2022-07-25T11:33:47;4.57;;;2.40;;
28074;SDS011;15385;51.088;6.572;2022-07-25T11:36:18;7.45;;;2.47;;
28074;SDS011;15385;51.088;6.572;2022-07-25T11:38:49;3.40;;;2.00;;
28074;SDS011;15385;51.088;6.572;2022-07-25T11:41:27;5.60;;;2.03;;
28074;SDS011;15385;51.088;6.572;2022-07-25T11:43:58;4.20;;;2.35;;
28074;SDS011;15385;51.088;6.572;2022-07-25T11:46:29;4.68;;;2.47;;
28074;SDS011;15385;51.088;6.572;2022-07-25T11:49:10;4.97;;;2.30;;
28074;SDS011;15385;51.088;6.572;2022-07-25T11:51:41;4.38;;;2.17;;
28074;SDS011;15385;51.088;6.572;2022-07-25T11:54:12;4.72;;;1.95;;
28074;SDS011;15385;51.088;6.572;2022-07-25T11:56:42;3.00;;;2.30;;
28074;SDS011;15385;51.088;6.572;2022-07-25T11:59:16;6.15;;;2.30;;
28074;SDS011;15385;51.088;6.572;2022-07-25T12:01:46;3.60;;;2.25;;
28074;SDS011;15385;51.088;6.572;2022-07-25T12:04:18;5.40;;;2.42;;
28074;SDS011;15385;51.088;6.572;2022-07-25T12:06:51;3.88;;;2.30;;
28074;SDS011;15385;51.088;6.572;2022-07-25T12:09:34;8.00;;;2.28;;
28074;SDS011;15385;51.088;6.572;2022-07-25T12:12:05;3.72;;;1.80;;
28074;SDS011;15385;51.088;6.572;2022-07-25T12:14:42;2.95;;;1.90;;
28074;SDS011;15385;51.088;6.572;2022-07-25T12:17:13;7.18;;;2.03;;
28074;SDS011;15385;51.088;6.572;2022-07-25T12:19:44;7.93;;;2.50;;
28074;SDS011;15385;51.088;6.572;2022-07-25T12:22:18;10.85;;;1.98;;
28074;SDS011;15385;51.088;6.572;2022-07-25T12:24:49;6.05;;;1.80;;
28074;SDS011;15385;51.088;6.572;2022-07-25T12:27:19;4.70;;;2.08;;
28074;SDS011;15385;51.088;6.572;2022-07-25T12:29:50;5.03;;;1.80;;
28074;SDS011;15385;51.088;6.572;2022-07-25T12:32:21;3.95;;;1.80;;
28074;SDS011;15385;51.088;6.572;2022-07-25T12:34:51;6.10;;;1.98;;
28074;SDS011;15385;51.088;6.572;2022-07-25T12:37:22;3.95;;;1.73;;
28074;SDS011;15385;51.088;6.572;2022-07-25T12:39:54;5.13;;;1.92;;
28074;SDS011;15385;51.088;6.572;2022-07-25T12:42:25;6.38;;;1.80;;
28074;SDS011;15385;51.088;6.572;2022-07-25T12:44:57;5.43;;;1.65;;
28074;SDS011;15385;51.088;6.572;2022-07-25T12:47:28;4.50;;;1.50;;
28074;SDS011;15385;51.088;6.572;2022-07-25T12:49:59;3.42;;;1.75;;
28074;SDS011;15385;51.088;6.572;2022-07-25T12:52:30;3.60;;;1.52;;
28074;SDS011;15385;51.088;6.572;2022-07-25T12:55:04;2.15;;;1.30;;
28074;SDS011;15385;51.088;6.572;2022-07-25T12:57:36;4.78;;;1.83;;
28074;SDS011;15385;51.088;6.572;2022-07-25T13:00:09;5.07;;;1.55;;
28074;SDS011;15385;51.088;6.572;2022-07-25T13:02:42;2.47;;;1.33;;
28074;SDS011;15385;51.088;6.572;2022-07-25T13:05:13;3.90;;;2.10;;
28074;SDS011;15385;51.088;6.572;2022-07-25T13:07:43;4.60;;;1.27;;
28074;SDS011;15385;51.088;6.572;2022-07-25T13:10:16;2.65;;;1.33;;
28074;SDS011;15385;51.088;6.572;2022-07-25T13:12:48;2.58;;;1.20;;
28074;SDS011;15385;51.088;6.572;2022-07-25T13:15:19;4.60;;;1.38;;
28074;SDS011;15385;51.088;6.572;2022-07-25T13:17:52;3.20;;;1.25;;
28074;SDS011;15385;51.088;6.572;2022-07-25T13:20:23;2.58;;;1.20;;
28074;SDS011;15385;51.088;6.572;2022-07-25T13:22:54;7.63;;;1.98;;
28074;SDS011;15385;51.088;6.572;2022-07-25T13:25:24;5.28;;;1.20;;
28074;SDS011;15385;51.088;6.572;2022-07-25T13:27:55;3.83;;;1.33;;
28074;SDS011;15385;51.088;6.572;2022-07-25T13:30:26;2.90;;;1.27;;
28074;SDS011;15385;51.088;6.572;2022-07-25T13:32:56;2.25;;;1.38;;
28074;SDS011;15385;51.088;6.572;2022-07-25T13:35:27;4.50;;;1.55;;
28074;SDS011;15385;51.088;6.572;2022-07-25T13:37:58;3.00;;;1.45;;
28074;SDS011;15385;51.088;6.572;2022-07-25T13:40:28;7.00;;;1.55;;
28074;SDS011;15385;51.088;6.572;2022-07-25T13:42:59;10.75;;;1.20;;
28074;SDS011;15385;51.088;6.572;2022-07-25T13:45:33;7.10;;;1.48;;
28074;SDS011;15385;51.088;6.572;2022-07-25T13:48:04;3.67;;;1.50;;
28074;SDS011;15385;51.088;6.572;2022-07-25T13:50:34;4.38;;;1.85;;
28074;SDS011;15385;51.088;6.572;2022-07-25T13:53:05;10.15;;;1.60;;
28074;SDS011;15385;51.088;6.572;2022-07-25T13:55:36;5.78;;;1.40;;
28074;SDS011;15385;51.088;6.572;2022-07-25T13:58:08;3.47;;;1.23;;
28074;SDS011;15385;51.088;6.572;2022-07-25T14:00:38;3.90;;;1.38;;
28074;SDS011;15385;51.088;6.572;2022-07-25T14:03:09;5.13;;;1.50;;
28074;SDS011;15385;51.088;6.572;2022-07-25T14:05:40;4.28;;;1.30;;
28074;SDS011;15385;51.088;6.572;2022-07-25T14:08:11;7.50;;;1.25;;
28074;SDS011;15385;51.088;6.572;2022-07-25T14:10:41;7.07;;;1.75;;
28074;SDS011;15385;51.088;6.572;2022-07-25T14:13:12;7.30;;;1.80;;
28074;SDS011;15385;51.088;6.572;2022-07-25T14:15:43;3.28;;;1.50;;
28074;SDS011;15385;51.088;6.572;2022-07-25T14:18:14;7.25;;;1.70;;
28074;SDS011;15385;51.088;6.572;2022-07-25T14:20:45;7.20;;;1.88;;
28074;SDS011;15385;51.088;6.572;2022-07-25T14:23:18;1.75;;;1.15;;
28074;SDS011;15385;51.088;6.572;2022-07-25T14:25:49;3.38;;;1.50;;
28074;SDS011;15385;51.088;6.572;2022-07-25T14:28:20;3.10;;;1.15;;
28074;SDS011;15385;51.088;6.572;2022-07-25T14:30:51;2.75;;;1.20;;
28074;SDS011;15385;51.088;6.572;2022-07-25T14:33:21;3.03;;;1.10;;
28074;SDS011;15385;51.088;6.572;2022-07-25T14:35:52;3.50;;;1.38;;
28074;SDS011;15385;51.088;6.572;2022-07-25T14:38:23;4.22;;;1.23;;
28074;SDS011;15385;51.088;6.572;2022-07-25T14:40:53;5.05;;;1.65;;
28074;SDS011;15385;51.088;6.572;2022-07-25T14:43:24;3.13;;;1.67;;
28074;SDS011;15385;51.088;6.572;2022-07-25T14:45:55;3.90;;;1.50;;
28074;SDS011;15385;51.088;6.572;2022-07-25T14:48:25;1.85;;;1.30;;
28074;SDS011;15385;51.088;6.572;2022-07-25T14:50:56;4.60;;;1.52;;
28074;SDS011;15385;51.088;6.572;2022-07-25T14:53:27;5.00;;;1.63;;
28074;SDS011;15385;51.088;6.572;2022-07-25T14:55:57;5.53;;;2.38;;
28074;SDS011;15385;51.088;6.572;2022-07-25T14:58:30;1.50;;;1.40;;
28074;SDS011;15385;51.088;6.572;2022-07-25T15:01:02;5.28;;;1.60;;
28074;SDS011;15385;51.088;6.572;2022-07-25T15:03:33;3.40;;;1.48;;
28074;SDS011;15385;51.088;6.572;2022-07-25T15:06:07;9.02;;;1.70;;
28074;SDS011;15385;51.088;6.572;2022-07-25T15:08:39;3.22;;;1.98;;
28074;SDS011;15385;51.088;6.572;2022-07-25T15:11:10;2.70;;;1.60;;
28074;SDS011;15385;51.088;6.572;2022-07-25T15:13:41;7.97;;;1.70;;
28074;SDS011;15385;51.088;6.572;2022-07-25T15:16:12;7.95;;;1.60;;
28074;SDS011;15385;51.088;6.572;2022-07-25T15:18:43;7.20;;;1.70;;
28074;SDS011;15385;51.088;6.572;2022-07-25T15:21:13;5.10;;;1.55;;
28074;SDS011;15385;51.088;6.572;2022-07-25T15:23:44;11.07;;;2.00;;
28074;SDS011;15385;51.088;6.572;2022-07-25T15:26:15;7.82;;;1.70;;
28074;SDS011;15385;51.088;6.572;2022-07-25T15:28:46;7.88;;;1.65;;